• Join FlightAware (Why Join?)
  • Login
  • US Flag 
10:15AM EST


 

Airport Tracker/Info


-or-


 

Live Flight TrackerFlight Track Log ✈ AAY855 ✈ 05-Jul-2014 ✈ KSBN - KPIE

Flight Track Log - Related Links

Times and Time Zones

All times are in EDT time to prevent confusion due to time zone crossing. See the AAY855 flight status page for this flight to view local times or setup timezone preferences in your user account.

Time Position Orientation Groundspeed Altitude Reporting Facility
EDT Latitude Longitude Course Direction KTS MPH feet Rate Location/Type
08:09PM 41.6475 -86.3728 131° Southeast 230 265 4,300  Level Chicago Center
08:10PM 41.6094 -86.2933 123° Southeast 256 295 6,700 2,340 Climbing Chicago Center
08:11PM 41.5586 -86.2067 128° Southeast 292 336 9,200 2,040 Climbing Chicago Center
08:12PM 41.4775 -86.1728 163° South 307 353 11,000 1,680 Climbing Chicago Center
08:13PM 41.3819 -86.1314 162° South 357 411 12,700 2,040 Climbing Chicago Center
08:14PM 41.2637 -85.6261 131° Southeast  Level FlightAware Approximate
08:14PM 41.2628 -86.0778 161° South 376 433 15,300  Level Chicago Center
08:15PM 41.1614 -86.0339 162° South 382 440 17,200 1,680 Climbing Chicago Center
08:16PM 41.0533 -85.9978 166° South 401 461 18,800 1,560 Climbing Chicago Center
08:17PM 40.9414 -85.9669 168° South 408 470 20,500 1,560 Climbing Chicago Center
08:18PM 40.8264 -85.9331 167° South 418 481 22,000 1,440 Climbing Chicago Center
08:19PM 40.7092 -85.8967 167° South 429 494 23,500 1,380 Climbing Chicago Center
08:20PM 40.5808 -85.8403 162° South 446 513 24,900 1,380 Climbing Chicago Center
08:21PM 40.4586 -85.8083 169° South 448 516 26,400 1,440 Climbing Chicago Center
08:22PM 40.3356 -85.7886 173° South 446 513 27,900 1,140 Climbing Chicago Center
08:23PM 40.1892 -85.7633 172° South 442 509 29,000 480 Climbing Indianapolis Center
08:24PM 40.0675 -85.7431 173° South 442 509 29,000  Level Indianapolis Center
08:25PM 39.9475 -85.7242 173° South 437 503 29,000  Level Indianapolis Center
08:31PM 39.2009 -85.6045 173° South 439 505 29,000  Level FlightAware ADS-B (KCVG)
08:35PM 38.7405 -85.5320 173° South 441 507 29,100  Climbing FlightAware ADS-B (KCVG)
08:36PM 38.6681 -85.5206 173° South 440 506 29,000 -120 Descending FlightAware ADS-B
08:37PM 38.5494 -85.5020 173° South 438 504 29,000  Level FlightAware ADS-B
08:38PM 38.4241 -85.4825 173° South 438 504 29,000  Level FlightAware ADS-B
08:39PM 38.3047 -85.4639 173° South 438 504 29,000  Level FlightAware ADS-B
08:39PM 38.2285 -85.4521 173° South 439 505 29,000  Level FlightAware ADS-B
08:40PM 38.1679 -85.4427 173° South 439 505 29,000  Level FlightAware ADS-B
08:41PM 38.0771 -85.4287 173° South 440 506 29,000  Level FlightAware ADS-B
08:41PM 37.9858 -85.4147 173° South 441 507 29,000  Level FlightAware ADS-B
08:42PM 37.9128 -85.4036 173° South 442 509 29,000  Level FlightAware ADS-B
08:43PM 37.8338 -85.3916 173° South 443 510 29,000 60 Level FlightAware ADS-B
08:43PM 37.7408 -85.3774 173° South 442 509 29,100 60 Climbing FlightAware ADS-B
08:44PM 37.6803 -85.3681 173° South 441 507 29,100 -120 Level FlightAware ADS-B
08:44PM 37.6196 -85.3588 173° South 440 506 29,000 -120 Descending FlightAware ADS-B
08:45PM 37.5586 -85.3494 173° South 439 505 29,000  Level FlightAware ADS-B
08:45PM 37.5013 -85.3408 173° South 437 503 29,000  Level FlightAware ADS-B
08:46PM 37.4433 -85.3321 173° South 435 501 29,000  Level FlightAware ADS-B
08:47PM 37.3480 -85.3177 173° South 434 499 29,000  Level FlightAware ADS-B
08:47PM 37.2879 -85.3087 173° South 434 499 29,000  Level FlightAware ADS-B
08:48PM 37.2115 -85.2972 173° South 432 497 29,000  Level FlightAware ADS-B
08:49PM 37.1201 -85.2835 173° South 432 497 29,000  Level FlightAware ADS-B
08:49PM 37.0503 -85.2729 173° South 431 496 29,000  Level FlightAware ADS-B
08:50PM 36.9807 -85.2626 173° South 430 495 29,000  Level FlightAware ADS-B
08:50PM 36.9067 -85.2516 173° South 430 495 29,000  Level FlightAware ADS-B
08:51PM 36.8931 -85.2496 173° South 431 496 29,000  Level FlightAware ADS-B
08:52PM 36.7355 -85.2261 173° South 430 495 29,000  Level FlightAware ADS-B
08:53PM 36.6167 -85.2084 173° South 429 494 29,000  Level FlightAware ADS-B
08:54PM 36.4980 -85.1908 173° South 430 495 29,000  Level FlightAware ADS-B
08:55PM 36.4021 -85.1768 173° South 431 496 29,000  Level FlightAware ADS-B (KMDQ)
08:55PM 36.3430 -85.1681 173° South 431 496 29,000  Level FlightAware ADS-B
08:56PM 36.2646 -85.1566 173° South 431 496 29,000  Level FlightAware ADS-B (KMDQ)
08:56PM 36.1848 -85.1449 173° South 432 497 29,000  Level FlightAware ADS-B (KMDQ)
08:57PM 36.1059 -85.1333 173° South 433 498 29,000  Level FlightAware ADS-B (KMDQ)
08:58PM 36.0082 -85.1191 173° South 432 497 29,000  Level FlightAware ADS-B (KMDQ)
08:59PM 35.9213 -85.1064 173° South 432 497 29,000  Level FlightAware ADS-B (KMDQ)
08:59PM 35.8475 -85.0957 173° South 433 498 29,000  Level FlightAware ADS-B (KMDQ)
09:00PM 35.7998 -85.0888 173° South 433 498 29,000  Level FlightAware ADS-B (KMDQ)
09:00PM 35.7074 -85.0755 173° South 433 498 29,000  Level FlightAware ADS-B (KMDQ)
09:01PM 35.6277 -85.0639 173° South 433 498 29,000  Level FlightAware ADS-B (KMDQ)
09:02PM 35.5641 -85.0547 173° South 432 497 29,000  Level FlightAware ADS-B (KMDQ)
09:02PM 35.4691 -85.0411 173° South 432 497 29,000  Level FlightAware ADS-B (KMDQ)
09:03PM 35.3955 -85.0306 173° South 432 497 29,000  Level FlightAware ADS-B (KMDQ)
09:04PM 35.3101 -85.0183 173° South 432 497 29,000  Level FlightAware ADS-B (KMDQ)
09:04PM 35.2338 -85.0075 173° South 432 497 29,000 60 Level FlightAware ADS-B (KMDQ)
09:05PM 35.1508 -84.9955 173° South 429 494 29,100  Climbing FlightAware ADS-B (KMDQ)
09:06PM 35.0751 -84.9847 173° South 428 493 29,000 -60 Descending FlightAware ADS-B (KMDQ)
09:07PM 34.8738 -84.9562 173° South 426 490 29,000  Level FlightAware ADS-B (KMDQ)
09:08PM 34.8037 -84.9462 173° South 419 482 29,000  Level FlightAware ADS-B (KDZJ)
09:09PM 34.7282 -84.9355 173° South 419 482 29,000  Level FlightAware ADS-B (KDZJ)
09:09PM 34.6468 -84.9240 173° South 419 482 29,000 60 Level FlightAware ADS-B (KDZJ)
09:10PM 34.5788 -84.9145 174° South 425 489 29,100  Climbing FlightAware ADS-B (KDZJ)
09:11PM 34.4948 -84.9026 173° South 425 489 29,000 -120 Descending FlightAware ADS-B (KDZJ)
09:11PM 34.4148 -84.8913 173° South 425 489 29,000  Level FlightAware ADS-B (KDZJ)
09:12PM 34.3388 -84.8807 173° South 424 488 29,000  Level FlightAware ADS-B (KDZJ)
09:14PM 34.1467 -84.8539 173° South 418 481 29,000  Level FlightAware ADS-B (KDZJ)
09:14PM 34.0580 -84.8416 173° South 420 483 29,000  Level FlightAware ADS-B (KDZJ)
09:15PM 33.9829 -84.8312 173° South 420 483 29,000  Level FlightAware ADS-B (KDZJ)
09:15PM 33.9164 -84.8220 173° South 420 483 29,000  Level FlightAware ADS-B (KDZJ)
09:17PM 33.7814 -84.8061 173° South 425 489 29,000  Level Atlanta Center
09:18PM 33.6647 -84.7875 172° South 425 489 29,000  Level Atlanta Center
09:19PM 33.5436 -84.7742 175° South 425 489 29,000  Level Atlanta Center
09:20PM 33.4247 -84.7556 173° South 425 489 29,000  Level Atlanta Center
09:21PM 33.3081 -84.7422 175° South 425 489 29,000  Level Atlanta Center
09:22PM 33.1911 -84.7264 174° South 425 489 29,000  Level Atlanta Center
09:23PM 33.0744 -84.7106 174° South 425 489 29,000  Level Atlanta Center
09:24PM 32.9556 -84.6925 173° South 425 489 29,000  Level Atlanta Center
09:25PM 32.8386 -84.6792 175° South 425 489 29,000  Level Atlanta Center
09:26PM 32.7197 -84.6636 174° South 425 489 29,000  Level Atlanta Center
09:27PM 32.6031 -84.6453 172° South 425 489 29,000  Level Atlanta Center
09:28PM 32.4861 -84.6297 174° South 425 489 29,000  Level Atlanta Center
09:30PM 32.2281 -84.5944 173° South 425 489 29,000  Level Jacksonville Center
09:31PM 32.1072 -84.5775 173° South 425 489 29,000  Level Jacksonville Center
09:32PM 31.9906 -84.5631 174° South 425 489 29,000  Level Jacksonville Center
09:37PM 31.3398 -84.4223 159° South 430 495 29,000  Level FlightAware ADS-B (KTLH)
09:39PM 31.1522 -84.3396 159° South 430 495 29,000  Level FlightAware ADS-B (KTLH)
09:40PM 31.0674 -84.3025 159° South 427 491 29,000  Level FlightAware ADS-B (KTLH)
09:41PM 30.9471 -84.2498 160° South 426 490 29,000  Level FlightAware ADS-B (KTLH)
09:42PM 30.8580 -84.2109 159° South 426 490 29,000  Level FlightAware ADS-B (KTLH)
09:42PM 30.8028 -84.1868 159° South 425 489 29,000  Level FlightAware ADS-B (KTLH)
09:43PM 30.7445 -84.1615 160° South 426 490 29,000  Level FlightAware ADS-B (KTLH)
09:43PM 30.6887 -84.1373 160° South 426 490 29,000  Level FlightAware ADS-B (KTLH)
09:44PM 30.6331 -84.1132 159° South 426 490 29,000  Level FlightAware ADS-B (KTLH)
09:44PM 30.5775 -84.0890 159° South 427 491 29,000  Level FlightAware ADS-B (KTLH)
09:45PM 30.5214 -84.0647 159° South 427 491 29,000  Level FlightAware ADS-B (KTLH)
09:45PM 30.4487 -84.0333 159° South 427 491 29,000  Level FlightAware ADS-B (KTLH)
09:46PM 30.3738 -84.0009 160° South 427 491 29,000  Level FlightAware ADS-B (KTLH)
09:47PM 30.3171 -83.9764 160° South 426 490 29,000  Level FlightAware ADS-B (KTLH)
09:47PM 30.2488 -83.9471 160° South 427 491 29,000  Level FlightAware ADS-B (KTLH)
09:48PM 30.1891 -83.9214 160° South 428 493 29,000  Level FlightAware ADS-B (KTLH)
09:48PM 30.1264 -83.8945 160° South 428 493 29,000  Level FlightAware ADS-B (KTLH)
09:49PM 30.0539 -83.8634 160° South 428 493 29,000  Level FlightAware ADS-B (KTLH)
09:50PM 29.9932 -83.8375 160° South 427 491 29,000  Level FlightAware ADS-B (KTLH)
09:51PM 29.8356 -83.7714 160° South 430 495 29,000  Level Jacksonville Center
09:52PM 29.7253 -83.7247 160° South 425 489 29,000  Level Jacksonville Center
09:53PM 29.6147 -83.6786 160° South 425 489 29,000 -60 Level Jacksonville Center
09:54PM 29.5022 -83.6322 160° South 425 489 28,900 -60 Descending Jacksonville Center
09:55PM 29.3942 -83.5861 160° South 425 489 28,900 -480 Level Jacksonville Center
09:56PM 29.2858 -83.5403 160° South 425 489 28,000 -1,200 Descending Jacksonville Center
09:57PM 29.1817 -83.4894 157° South 425 489 26,500 -1,680 Descending Jacksonville Center
09:58PM 29.0858 -83.4247 149° Southeast 412 474 24,700 -1,800 Descending Jacksonville Center
09:59PM 28.9881 -83.3625 151° Southeast 405 466 23,000 -1,800 Descending Jacksonville Center
10:00PM 28.8922 -83.3028 151° Southeast 400 460 21,200 -1,740 Descending Jacksonville Center
10:01PM 28.8006 -83.2433 150° Southeast 389 448 19,600 -1,740 Descending Jacksonville Center
10:03PM 28.6333 -83.1333 150° Southeast 366 421 16,300 -1,740 Descending Tampa TRACON
10:03PM 28.5956 -83.1133 155° Southeast 364 419 15,500 -1,620 Descending Miami Center
10:04PM 28.5103 -83.0558 149° Southeast 360 414 13,800 -1,440 Descending Miami Center
10:05PM 28.4275 -83.0042 151° Southeast 348 400 12,600 -1,500 Descending Miami Center
10:06PM 28.3553 -82.9544 149° Southeast 318 366 10,800 -2,040 Descending Miami Center
10:07PM 28.2850 -82.9089 150° Southeast 296 341 8,600 -2,040 Descending Miami Center
10:08PM 28.2161 -82.8658 151° Southeast 289 333 6,700 -1,740 Descending Miami Center
10:09PM 28.1514 -82.8192 148° Southeast 282 325 5,100 -1,860 Descending Miami Center
10:10PM 28.1000 -82.7833 148° Southeast 267 307 3,900 -1,800 Descending Tampa TRACON
10:11PM 28.0500 -82.7500 150° Southeast 250 288 2,400 -1,200 Descending Tampa TRACON
10:12PM 28.0000 -82.7167 150° Southeast 211 243 1,700 -900 Descending Tampa TRACON
10:13PM 27.9500 -82.7000 164° South 154 177 700 -600 Descending Tampa TRACON
10:15PM 27.8922 -82.6858 168° South 159 183 200 -360 Descending Miami Center